createdAt,value
2022-11-14T00:00:54.695Z,1009.90
2022-11-14T00:01:54.736Z,1009.93
2022-11-14T00:02:54.900Z,1009.91
2022-11-14T00:03:54.672Z,1009.92
2022-11-14T00:04:54.703Z,1009.91
2022-11-14T00:05:54.664Z,1009.86
2022-11-14T00:06:54.708Z,1009.81
2022-11-14T00:07:54.655Z,1009.85
2022-11-14T00:08:54.603Z,1009.84
2022-11-14T00:09:55.158Z,1009.82
2022-11-14T00:10:54.601Z,1009.86
2022-11-14T00:11:54.607Z,1009.84
2022-11-14T00:12:54.558Z,1009.88
2022-11-14T00:13:54.645Z,1009.84
2022-11-14T00:14:54.672Z,1009.82
2022-11-14T00:15:54.601Z,1009.82
2022-11-14T00:16:54.551Z,1009.80
2022-11-14T00:17:54.540Z,1009.77
2022-11-14T00:18:54.503Z,1009.76
2022-11-14T00:19:54.531Z,1009.78
2022-11-14T00:20:54.499Z,1009.79
2022-11-14T00:21:54.482Z,1009.74
2022-11-14T00:22:54.449Z,1009.74
2022-11-14T00:23:54.512Z,1009.74
2022-11-14T00:24:54.447Z,1009.69
2022-11-14T00:25:54.475Z,1009.72
2022-11-14T00:26:54.404Z,1009.73
2022-11-14T00:27:54.391Z,1009.74
2022-11-14T00:28:54.377Z,1009.79
2022-11-14T00:29:54.372Z,1009.74
2022-11-14T00:30:54.381Z,1009.69
2022-11-14T00:31:54.402Z,1009.67
2022-11-14T00:32:54.354Z,1009.67
2022-11-14T00:33:54.337Z,1009.62
2022-11-14T00:34:54.311Z,1009.66
2022-11-14T00:35:54.327Z,1009.59
2022-11-14T00:36:54.289Z,1009.62
2022-11-14T00:37:54.291Z,1009.65
2022-11-14T00:38:54.275Z,1009.60
2022-11-14T00:39:54.256Z,1009.59
2022-11-14T00:40:54.282Z,1009.59
2022-11-14T00:41:54.241Z,1009.62
2022-11-14T00:42:54.293Z,1009.60
2022-11-14T00:43:54.251Z,1009.56
2022-11-14T00:44:54.201Z,1009.57
2022-11-14T00:45:54.198Z,1009.58
2022-11-14T00:46:54.202Z,1009.57
2022-11-14T00:47:54.177Z,1009.51
2022-11-14T00:48:55.154Z,1009.46
2022-11-14T00:49:54.155Z,1009.47
2022-11-14T00:50:54.136Z,1009.50
2022-11-14T00:51:54.155Z,1009.50
2022-11-14T00:52:54.174Z,1009.47
2022-11-14T00:53:54.253Z,1009.44
2022-11-14T00:54:54.089Z,1009.46
2022-11-14T00:55:54.079Z,1009.45
2022-11-14T00:56:54.098Z,1009.41
2022-11-14T00:57:54.087Z,1009.40
2022-11-14T00:58:54.047Z,1009.37
2022-11-14T00:59:54.054Z,1009.41
2022-11-14T01:00:54.106Z,1009.38
2022-11-14T01:01:57.746Z,1009.44
2022-11-14T01:02:54.033Z,1009.37
2022-11-14T01:03:53.994Z,1009.34
2022-11-14T01:04:53.983Z,1009.35
2022-11-14T01:05:54.025Z,1009.35
2022-11-14T01:06:53.971Z,1009.38
2022-11-14T01:07:54.003Z,1009.37
2022-11-14T01:08:53.992Z,1009.32
2022-11-14T01:09:53.935Z,1009.33
2022-11-14T01:10:53.916Z,1009.28
2022-11-14T01:11:53.913Z,1009.27
2022-11-14T01:12:53.917Z,1009.27
2022-11-14T01:13:53.885Z,1009.18
2022-11-14T01:14:53.872Z,1009.21
2022-11-14T01:15:53.919Z,1009.23
2022-11-14T01:16:53.858Z,1009.19
2022-11-14T01:17:53.862Z,1009.18
2022-11-14T01:18:53.833Z,1009.17
2022-11-14T01:19:53.824Z,1009.21
2022-11-14T01:20:53.817Z,1009.16
2022-11-14T01:21:53.822Z,1009.16
2022-11-14T01:22:53.839Z,1009.14
2022-11-14T01:23:53.902Z,1009.12
2022-11-14T01:24:53.777Z,1009.14
2022-11-14T01:25:53.766Z,1009.09
2022-11-14T01:26:53.753Z,1009.12
2022-11-14T01:27:54.508Z,1009.09
2022-11-14T01:28:54.608Z,1009.04
2022-11-14T01:29:53.736Z,1009.06
2022-11-14T01:30:53.719Z,1009.07
2022-11-14T01:31:53.684Z,1009.04
2022-11-14T01:32:53.690Z,1009.04
2022-11-14T01:33:53.701Z,1009.07
2022-11-14T01:34:53.687Z,1009.01
2022-11-14T01:35:53.663Z,1009.00
2022-11-14T01:36:53.637Z,1008.99
2022-11-14T01:37:53.644Z,1009.02
2022-11-14T01:38:53.642Z,1008.99
2022-11-14T01:39:53.741Z,1009.05
2022-11-14T01:40:53.613Z,1009.06
2022-11-14T01:41:53.584Z,1008.99
2022-11-14T01:42:53.598Z,1009.00
2022-11-14T01:43:53.559Z,1008.98
2022-11-14T01:44:53.592Z,1009.03
2022-11-14T01:45:53.567Z,1009.01
2022-11-14T01:46:53.524Z,1009.03
2022-11-14T01:47:53.508Z,1008.98
2022-11-14T01:48:53.502Z,1008.98
2022-11-14T01:49:53.515Z,1008.99
2022-11-14T01:50:53.478Z,1008.94
2022-11-14T01:51:53.480Z,1008.90
2022-11-14T01:52:53.454Z,1008.89
2022-11-14T01:53:53.451Z,1008.88
2022-11-14T01:54:53.438Z,1008.83
2022-11-14T01:55:53.533Z,1008.80
2022-11-14T01:56:53.419Z,1008.82
2022-11-14T01:57:53.418Z,1008.77
2022-11-14T01:58:53.413Z,1008.81
2022-11-14T01:59:53.378Z,1008.77
2022-11-14T02:00:53.460Z,1008.76
2022-11-14T02:01:53.402Z,1008.76
2022-11-14T02:02:53.343Z,1008.77
2022-11-14T02:03:53.332Z,1008.77
2022-11-14T02:04:53.326Z,1008.74
2022-11-14T02:05:53.342Z,1008.73
2022-11-14T02:06:53.374Z,1008.73
2022-11-14T02:07:53.299Z,1008.72
2022-11-14T02:08:53.277Z,1008.67
2022-11-14T02:09:53.271Z,1008.63
2022-11-14T02:10:53.282Z,1008.62
2022-11-14T02:11:53.285Z,1008.65
2022-11-14T02:12:53.234Z,1008.64
2022-11-14T02:13:53.231Z,1008.60
2022-11-14T02:14:53.285Z,1008.58
2022-11-14T02:15:53.203Z,1008.57
2022-11-14T02:17:22.219Z,1008.58
2022-11-14T02:17:53.190Z,1008.57
2022-11-14T02:18:53.170Z,1008.58
2022-11-14T02:19:53.171Z,1008.58
2022-11-14T02:20:53.142Z,1008.57
2022-11-14T02:21:53.141Z,1008.60
2022-11-14T02:22:53.145Z,1008.61
2022-11-14T02:23:53.138Z,1008.60
2022-11-14T02:24:53.101Z,1008.58
2022-11-14T02:25:53.097Z,1008.64
2022-11-14T02:26:53.077Z,1008.56
2022-11-14T02:27:53.133Z,1008.50
2022-11-14T02:28:53.057Z,1008.49
2022-11-14T02:29:53.045Z,1008.45
2022-11-14T02:30:53.034Z,1008.45
2022-11-14T02:31:53.029Z,1008.40
2022-11-14T02:33:53.008Z,1008.34
2022-11-14T02:34:52.988Z,1008.36
2022-11-14T02:35:52.977Z,1008.32
2022-11-14T02:36:52.991Z,1008.29
2022-11-14T02:37:52.994Z,1008.28
2022-11-14T02:38:52.970Z,1008.30
2022-11-14T02:39:52.941Z,1008.26
2022-11-14T02:40:52.928Z,1008.28
2022-11-14T02:41:52.929Z,1008.23
2022-11-14T02:42:52.902Z,1008.29
2022-11-14T02:43:52.942Z,1008.27
2022-11-14T02:44:52.877Z,1008.28
2022-11-14T02:45:52.875Z,1008.28
2022-11-14T02:46:52.857Z,1008.25
2022-11-14T02:47:52.865Z,1008.25
2022-11-14T02:48:52.887Z,1008.25
2022-11-14T02:49:52.829Z,1008.25
2022-11-14T02:50:52.809Z,1008.26
2022-11-14T02:51:52.805Z,1008.24
2022-11-14T02:52:52.790Z,1008.26
2022-11-14T02:53:52.794Z,1008.21
2022-11-14T02:54:54.635Z,1008.21
2022-11-14T02:55:52.757Z,1008.24
2022-11-14T02:56:52.743Z,1008.20
2022-11-14T02:57:52.749Z,1008.17
2022-11-14T02:58:53.610Z,1008.14
2022-11-14T02:59:52.742Z,1008.14
2022-11-14T03:01:19.052Z,1008.16
2022-11-14T03:01:52.745Z,1008.14
2022-11-14T03:02:52.681Z,1008.12
2022-11-14T03:03:52.676Z,1008.12
2022-11-14T03:04:52.701Z,1008.09
2022-11-14T03:05:52.677Z,1008.13
2022-11-14T03:06:53.519Z,1008.09
2022-11-14T03:07:52.623Z,1008.12
2022-11-14T03:08:52.617Z,1008.10
2022-11-14T03:09:52.615Z,1008.15
2022-11-14T03:10:52.641Z,1008.11
2022-11-14T03:11:52.586Z,1008.14
2022-11-14T03:12:52.571Z,1008.15
2022-11-14T03:13:52.562Z,1008.12
2022-11-14T03:14:52.548Z,1008.12
2022-11-14T03:15:52.580Z,1008.15
2022-11-14T03:16:52.523Z,1008.09
2022-11-14T03:17:52.515Z,1008.08
2022-11-14T03:18:52.503Z,1008.06
2022-11-14T03:19:52.513Z,1008.05
2022-11-14T03:20:52.500Z,1008.02
2022-11-14T03:21:52.520Z,1007.98
2022-11-14T03:22:52.492Z,1008.00
2022-11-14T03:23:52.447Z,1007.94
2022-11-14T03:24:52.442Z,1007.96
2022-11-14T03:25:52.432Z,1007.98
2022-11-14T03:26:52.440Z,1007.97
2022-11-14T03:27:52.418Z,1008.00
2022-11-14T03:28:52.403Z,1007.98
2022-11-14T03:29:52.389Z,1007.93
2022-11-14T03:30:52.420Z,1007.91
2022-11-14T03:31:52.385Z,1007.93
2022-11-14T03:32:52.400Z,1007.91
2022-11-14T03:33:52.337Z,1007.91
2022-11-14T03:34:52.325Z,1007.91
2022-11-14T03:35:52.346Z,1007.92
2022-11-14T03:36:52.317Z,1007.90
2022-11-14T03:37:56.133Z,1007.89
2022-11-14T03:38:52.292Z,1007.83
2022-11-14T03:39:52.302Z,1007.84
2022-11-14T03:40:52.260Z,1007.79
2022-11-14T03:41:52.250Z,1007.78
2022-11-14T03:42:52.282Z,1007.75
2022-11-14T03:43:52.224Z,1007.74
2022-11-14T03:44:52.217Z,1007.72
2022-11-14T03:45:52.204Z,1007.72
2022-11-14T03:46:52.203Z,1007.69
2022-11-14T03:47:52.181Z,1007.69
2022-11-14T03:48:52.215Z,1007.69
2022-11-14T03:49:52.160Z,1007.68
2022-11-14T03:50:52.153Z,1007.73
2022-11-14T03:51:52.153Z,1007.66
2022-11-14T03:52:52.132Z,1007.69
2022-11-14T03:53:52.150Z,1007.65
2022-11-14T03:54:52.147Z,1007.64
2022-11-14T03:55:52.095Z,1007.62
2022-11-14T03:56:52.112Z,1007.65
2022-11-14T03:57:52.069Z,1007.66
2022-11-14T03:58:52.066Z,1007.64
2022-11-14T03:59:52.157Z,1007.63
2022-11-14T04:00:52.067Z,1007.67
2022-11-14T04:01:52.026Z,1007.67
2022-11-14T04:02:52.020Z,1007.68
2022-11-14T04:03:52.028Z,1007.69
2022-11-14T04:04:52.002Z,1007.73
2022-11-14T04:05:52.010Z,1007.71
2022-11-14T04:06:52.008Z,1007.67
2022-11-14T04:07:51.963Z,1007.69
2022-11-14T04:08:52.016Z,1007.72
2022-11-14T04:09:51.963Z,1007.64
2022-11-14T04:10:52.920Z,1007.63
2022-11-14T04:11:51.941Z,1007.65
2022-11-14T04:12:51.915Z,1007.64
2022-11-14T04:13:51.894Z,1007.61
2022-11-14T04:14:51.891Z,1007.63
2022-11-14T04:15:51.878Z,1007.61
2022-11-14T04:16:51.870Z,1007.65
2022-11-14T04:17:51.890Z,1007.61
2022-11-14T04:18:51.845Z,1007.57
2022-11-14T04:19:51.830Z,1007.54
2022-11-14T04:20:51.817Z,1007.56
2022-11-14T04:21:51.809Z,1007.57
2022-11-14T04:22:51.797Z,1007.58
2022-11-14T04:23:51.828Z,1007.61
2022-11-14T04:24:51.775Z,1007.61
2022-11-14T04:25:51.769Z,1007.60
2022-11-14T04:26:51.749Z,1007.60
2022-11-14T04:27:51.763Z,1007.63
2022-11-14T04:28:51.730Z,1007.63
2022-11-14T04:29:51.770Z,1007.65
2022-11-14T04:30:51.709Z,1007.62
2022-11-14T04:31:51.701Z,1007.64
2022-11-14T04:32:51.687Z,1007.68
2022-11-14T04:33:51.675Z,1007.66
2022-11-14T04:34:51.664Z,1007.69
2022-11-14T04:35:51.682Z,1007.65
2022-11-14T04:36:51.646Z,1007.64
2022-11-14T04:37:51.673Z,1007.61
2022-11-14T04:38:51.620Z,1007.62
2022-11-14T04:39:51.636Z,1007.62
2022-11-14T04:40:51.603Z,1007.56
2022-11-14T04:41:51.602Z,1007.59
2022-11-14T04:42:51.576Z,1007.52
2022-11-14T04:43:51.589Z,1007.45
2022-11-14T04:44:51.575Z,1007.43
2022-11-14T04:45:51.575Z,1007.42
2022-11-14T04:46:51.533Z,1007.45
2022-11-14T04:47:51.529Z,1007.36
2022-11-14T04:48:51.530Z,1007.29
2022-11-14T04:49:51.505Z,1007.25
2022-11-14T04:50:51.514Z,1007.25
2022-11-14T04:51:51.478Z,1007.25
2022-11-14T04:52:51.469Z,1007.26
2022-11-14T04:53:51.457Z,1007.27
2022-11-14T04:54:51.446Z,1007.25
2022-11-14T04:55:51.435Z,1007.25
2022-11-14T04:56:51.442Z,1007.23
2022-11-14T04:57:51.420Z,1007.28
2022-11-14T04:58:51.400Z,1007.31
2022-11-14T04:59:51.388Z,1007.25
2022-11-14T05:00:51.382Z,1007.27
2022-11-14T05:01:51.460Z,1007.27
2022-11-14T05:02:51.383Z,1007.25
2022-11-14T05:03:51.351Z,1007.24
2022-11-14T05:04:51.335Z,1007.23
2022-11-14T05:05:51.331Z,1007.25
2022-11-14T05:06:51.327Z,1007.25
2022-11-14T05:07:51.346Z,1007.24
2022-11-14T05:08:51.290Z,1007.21
2022-11-14T05:09:51.288Z,1007.25
2022-11-14T05:10:51.268Z,1007.17
2022-11-14T05:11:51.259Z,1007.20
2022-11-14T05:12:51.245Z,1007.12
2022-11-14T05:13:51.264Z,1007.05
2022-11-14T05:14:51.234Z,1007.11
2022-11-14T05:15:51.221Z,1007.11
2022-11-14T05:16:51.205Z,1007.10
2022-11-14T05:17:51.193Z,1007.10
2022-11-14T05:18:51.209Z,1007.12
2022-11-14T05:19:51.173Z,1007.13
2022-11-14T05:20:51.172Z,1007.09
2022-11-14T05:21:51.150Z,1007.09
2022-11-14T05:22:51.140Z,1007.11
2022-11-14T05:23:51.162Z,1007.11
2022-11-14T05:24:51.117Z,1007.13
2022-11-14T05:25:56.109Z,1007.04
2022-11-14T05:26:51.118Z,1007.05
2022-11-14T05:27:51.080Z,1007.06
2022-11-14T05:28:51.074Z,1007.08
2022-11-14T05:29:51.087Z,1007.04
2022-11-14T05:30:51.077Z,1007.10
2022-11-14T05:31:51.076Z,1007.10
2022-11-14T05:32:51.035Z,1007.10
2022-11-14T05:33:51.016Z,1007.10
2022-11-14T05:34:51.031Z,1007.09
2022-11-14T05:35:50.999Z,1007.10
2022-11-14T05:36:51.001Z,1007.08
2022-11-14T05:37:52.276Z,1007.10
2022-11-14T05:38:50.962Z,1007.07
2022-11-14T05:39:50.973Z,1007.09
2022-11-14T05:40:50.942Z,1007.03
2022-11-14T05:41:50.975Z,1007.00
2022-11-14T05:42:50.921Z,1007.03
2022-11-14T05:43:50.911Z,1007.01
2022-11-14T05:44:50.924Z,1007.03
2022-11-14T05:45:50.885Z,1007.05
2022-11-14T05:46:50.883Z,1006.99
2022-11-14T05:47:50.868Z,1007.00
2022-11-14T05:48:50.858Z,1006.99
2022-11-14T05:49:50.865Z,1006.98
2022-11-14T05:50:50.843Z,1007.01
2022-11-14T05:51:50.817Z,1007.04
2022-11-14T05:52:50.822Z,1007.04
2022-11-14T05:53:50.798Z,1006.96
2022-11-14T05:54:50.809Z,1006.97
2022-11-14T05:55:50.774Z,1006.98
2022-11-14T05:56:50.769Z,1006.93
2022-11-14T05:57:50.752Z,1006.95
2022-11-14T05:58:50.761Z,1006.95
2022-11-14T05:59:50.758Z,1006.95
2022-11-14T06:00:54.141Z,1006.94
2022-11-14T06:01:50.780Z,1007.00
2022-11-14T06:02:50.719Z,1007.01
2022-11-14T06:03:50.687Z,1007.05
2022-11-14T06:04:50.700Z,1007.08
2022-11-14T06:05:50.665Z,1007.08
2022-11-14T06:06:50.695Z,1007.11
2022-11-14T06:07:50.648Z,1007.17
2022-11-14T06:08:50.641Z,1007.13
2022-11-14T06:09:50.643Z,1007.09
2022-11-14T06:10:50.617Z,1007.09
2022-11-14T06:11:50.636Z,1007.03
2022-11-14T06:12:50.595Z,1007.00
2022-11-14T06:13:50.578Z,1006.98
2022-11-14T06:14:50.592Z,1007.05
2022-11-14T06:15:50.557Z,1007.04
2022-11-14T06:16:50.563Z,1006.97
2022-11-14T06:17:50.542Z,1006.98
2022-11-14T06:18:50.524Z,1006.98
2022-11-14T06:19:50.540Z,1006.99
2022-11-14T06:20:50.501Z,1007.03
2022-11-14T06:21:50.498Z,1007.03
2022-11-14T06:22:50.475Z,1007.03
2022-11-14T06:23:50.468Z,1007.03
2022-11-14T06:24:50.476Z,1007.05
2022-11-14T06:25:50.449Z,1007.13
2022-11-14T06:26:50.435Z,1007.18
2022-11-14T06:27:50.427Z,1007.16
2022-11-14T06:28:50.411Z,1007.18
2022-11-14T06:29:50.421Z,1007.20
2022-11-14T06:30:50.393Z,1007.22
2022-11-14T06:31:50.377Z,1007.20
2022-11-14T06:32:50.371Z,1007.18
2022-11-14T06:33:50.426Z,1007.18
2022-11-14T06:34:50.375Z,1007.18
2022-11-14T06:35:50.333Z,1007.20
2022-11-14T06:36:50.324Z,1007.19
2022-11-14T06:37:50.309Z,1007.19
2022-11-14T06:38:50.341Z,1007.19
2022-11-14T06:39:50.625Z,1007.19
2022-11-14T06:40:50.287Z,1007.16
2022-11-14T06:41:50.266Z,1007.15
2022-11-14T06:42:50.258Z,1007.20
2022-11-14T06:43:50.245Z,1007.20
2022-11-14T06:44:50.284Z,1007.17
2022-11-14T06:45:50.226Z,1007.19
2022-11-14T06:46:50.226Z,1007.15
2022-11-14T06:47:50.201Z,1007.20
2022-11-14T06:48:50.196Z,1007.15
2022-11-14T06:49:50.215Z,1007.13
2022-11-14T06:50:50.180Z,1007.11
2022-11-14T06:51:50.162Z,1007.08
2022-11-14T06:52:50.157Z,1007.10
2022-11-14T06:53:50.136Z,1007.09
2022-11-14T06:54:50.167Z,1007.07
2022-11-14T06:55:50.115Z,1007.05
2022-11-14T06:56:50.109Z,1007.00
2022-11-14T06:57:50.093Z,1007.05
2022-11-14T06:58:50.091Z,1007.02
2022-11-14T06:59:50.111Z,1007.04
2022-11-14T07:00:50.067Z,1007.04
2022-11-14T07:01:50.052Z,1007.02
2022-11-14T07:02:50.150Z,1006.97
2022-11-14T07:03:50.026Z,1006.94
2022-11-14T07:04:50.039Z,1006.97
2022-11-14T07:05:50.003Z,1006.91
2022-11-14T07:06:50.054Z,1006.90
2022-11-14T07:07:49.988Z,1006.86
2022-11-14T07:08:49.988Z,1006.86
2022-11-14T07:09:49.992Z,1006.91
2022-11-14T07:10:49.959Z,1006.94
2022-11-14T07:11:49.941Z,1006.93
2022-11-14T07:12:49.931Z,1006.97
2022-11-14T07:13:49.917Z,1007.04
2022-11-14T07:14:49.953Z,1007.11
2022-11-14T07:15:49.895Z,1007.13
2022-11-14T07:16:49.899Z,1007.12
2022-11-14T07:17:49.886Z,1007.11
2022-11-14T07:18:49.867Z,1007.13
2022-11-14T07:19:49.878Z,1007.17
2022-11-14T07:20:49.848Z,1007.16
2022-11-14T07:21:49.833Z,1007.15
2022-11-14T07:22:49.817Z,1007.11
2022-11-14T07:23:49.819Z,1007.06
2022-11-14T07:24:49.828Z,1006.98
2022-11-14T07:25:49.791Z,1007.02
2022-11-14T07:26:49.774Z,1006.97
2022-11-14T07:27:49.769Z,1006.92
2022-11-14T07:28:53.559Z,1006.94
2022-11-14T07:29:49.756Z,1006.86
2022-11-14T07:30:49.754Z,1006.83
2022-11-14T07:31:49.721Z,1006.84
2022-11-14T07:32:49.712Z,1006.81
2022-11-14T07:33:49.700Z,1006.77
2022-11-14T07:34:49.692Z,1006.72
2022-11-14T07:35:49.905Z,1006.68
2022-11-14T07:36:49.671Z,1006.68
2022-11-14T07:37:49.667Z,1006.67
2022-11-14T07:38:49.643Z,1006.70
2022-11-14T07:39:49.637Z,1006.73
2022-11-14T07:40:49.625Z,1006.79
2022-11-14T07:41:49.644Z,1006.85
2022-11-14T07:42:49.601Z,1006.84
2022-11-14T07:43:49.594Z,1006.82
2022-11-14T07:44:49.577Z,1006.86
2022-11-14T07:45:49.573Z,1006.84
2022-11-14T07:46:49.556Z,1006.77
2022-11-14T07:47:49.591Z,1006.79
2022-11-14T07:48:49.585Z,1006.74
2022-11-14T07:49:49.534Z,1006.76
2022-11-14T07:50:49.513Z,1006.73
2022-11-14T07:51:49.504Z,1006.74
2022-11-14T07:52:49.489Z,1006.75
2022-11-14T07:53:49.504Z,1006.72
2022-11-14T07:54:49.469Z,1006.70
2022-11-14T07:55:49.459Z,1006.69
2022-11-14T07:56:49.445Z,1006.72
2022-11-14T07:57:49.775Z,1006.74
2022-11-14T07:58:49.435Z,1006.71
2022-11-14T07:59:49.437Z,1006.74
2022-11-14T08:00:49.443Z,1006.77
2022-11-14T08:01:49.396Z,1006.78
2022-11-14T08:02:49.403Z,1006.83
2022-11-14T08:03:49.376Z,1006.87
2022-11-14T08:04:49.360Z,1006.93
2022-11-14T08:05:49.382Z,1006.89
2022-11-14T08:06:50.061Z,1006.93
2022-11-14T08:07:49.326Z,1006.96
2022-11-14T08:08:49.318Z,1006.94
2022-11-14T08:09:49.307Z,1006.96
2022-11-14T08:10:49.292Z,1006.90
2022-11-14T08:11:49.359Z,1006.89
2022-11-14T08:13:04.570Z,1006.90
2022-11-14T08:13:49.273Z,1006.91
2022-11-14T08:14:49.250Z,1006.88
2022-11-14T08:15:49.243Z,1006.88
2022-11-14T08:16:49.225Z,1006.85
2022-11-14T08:17:49.237Z,1006.88
2022-11-14T08:18:49.210Z,1006.96
2022-11-14T08:19:49.196Z,1006.91
2022-11-14T08:20:49.189Z,1006.94
2022-11-14T08:21:49.177Z,1006.88
2022-11-14T08:22:49.160Z,1006.90
2022-11-14T08:23:49.184Z,1006.97
2022-11-14T08:24:49.137Z,1006.94
2022-11-14T08:25:49.124Z,1006.96
2022-11-14T08:26:49.115Z,1006.94
2022-11-14T08:27:49.116Z,1006.90
2022-11-14T08:28:49.095Z,1006.92
2022-11-14T08:29:49.295Z,1006.86
2022-11-14T08:30:49.079Z,1006.89
2022-11-14T08:31:49.074Z,1006.83
2022-11-14T08:32:49.075Z,1006.83
2022-11-14T08:33:49.037Z,1006.81
2022-11-14T08:34:49.057Z,1006.77
2022-11-14T08:35:49.016Z,1006.81
2022-11-14T08:36:49.016Z,1006.75
2022-11-14T08:37:49.037Z,1006.77
2022-11-14T08:38:51.486Z,1006.76
2022-11-14T08:39:49.113Z,1006.73
2022-11-14T08:40:49.004Z,1006.80
2022-11-14T08:41:48.972Z,1006.73
2022-11-14T08:42:48.978Z,1006.67
2022-11-14T08:43:48.930Z,1006.62
2022-11-14T08:44:52.050Z,1006.65
2022-11-14T08:45:48.941Z,1006.62
2022-11-14T08:46:48.898Z,1006.64
2022-11-14T08:47:48.885Z,1006.61
2022-11-14T08:48:48.872Z,1006.67
2022-11-14T08:49:48.862Z,1006.60
2022-11-14T08:50:48.869Z,1006.60
2022-11-14T08:51:48.836Z,1006.56
2022-11-14T08:52:48.828Z,1006.63
2022-11-14T08:53:48.836Z,1006.64
2022-11-14T08:54:48.868Z,1006.63
2022-11-14T08:55:48.866Z,1006.69
2022-11-14T08:56:48.825Z,1006.64
2022-11-14T08:57:49.868Z,1006.62
2022-11-14T08:58:48.806Z,1006.57
2022-11-14T08:59:48.776Z,1006.55
2022-11-14T09:00:48.803Z,1006.57
2022-11-14T09:01:48.729Z,1006.62
2022-11-14T09:02:48.771Z,1006.63
2022-11-14T09:03:48.871Z,1006.65
2022-11-14T09:04:48.847Z,1006.68
2022-11-14T09:05:48.707Z,1006.64
2022-11-14T09:06:48.719Z,1006.61
2022-11-14T09:07:48.655Z,1006.60
2022-11-14T09:08:48.655Z,1006.60
2022-11-14T09:09:48.663Z,1006.62
2022-11-14T09:10:48.635Z,1006.63
2022-11-14T09:11:48.642Z,1006.66
2022-11-14T09:12:48.612Z,1006.66
2022-11-14T09:13:48.591Z,1006.68
2022-11-14T09:14:48.611Z,1006.66
2022-11-14T09:15:48.569Z,1006.63
2022-11-14T09:16:48.586Z,1006.67
2022-11-14T09:17:48.577Z,1006.68
2022-11-14T09:18:48.535Z,1006.63
2022-11-14T09:19:48.532Z,1006.61
2022-11-14T09:20:48.549Z,1006.55
2022-11-14T09:21:48.536Z,1006.60
2022-11-14T09:22:48.494Z,1006.59
2022-11-14T09:23:48.483Z,1006.60
2022-11-14T09:24:48.469Z,1006.66
2022-11-14T09:25:48.473Z,1006.59
2022-11-14T09:26:52.147Z,1006.64
2022-11-14T09:27:48.478Z,1006.71
2022-11-14T09:28:48.428Z,1006.69
2022-11-14T09:29:48.417Z,1006.72
2022-11-14T09:30:48.417Z,1006.70
2022-11-14T09:31:48.401Z,1006.68
2022-11-14T09:32:48.403Z,1006.70
2022-11-14T09:33:48.373Z,1006.64
2022-11-14T09:34:48.360Z,1006.61
2022-11-14T09:35:48.363Z,1006.60
2022-11-14T09:36:48.337Z,1006.61
2022-11-14T09:37:48.371Z,1006.55
2022-11-14T09:38:48.324Z,1006.55
2022-11-14T09:39:48.352Z,1006.54
2022-11-14T09:40:48.297Z,1006.60
2022-11-14T09:41:48.287Z,1006.56
2022-11-14T09:42:48.273Z,1006.59
2022-11-14T09:43:48.291Z,1006.56
2022-11-14T09:44:48.408Z,1006.49
2022-11-14T09:45:48.249Z,1006.52
2022-11-14T09:46:48.227Z,1006.52
2022-11-14T09:47:48.223Z,1006.48
2022-11-14T09:48:48.227Z,1006.43
2022-11-14T09:49:48.199Z,1006.51
2022-11-14T09:50:48.190Z,1006.54
2022-11-14T09:51:48.175Z,1006.51
2022-11-14T09:52:48.162Z,1006.47
2022-11-14T09:53:48.174Z,1006.41
2022-11-14T09:54:48.144Z,1006.44
2022-11-14T09:55:48.126Z,1006.42
2022-11-14T09:56:48.118Z,1006.42
2022-11-14T09:57:48.113Z,1006.43
2022-11-14T09:58:48.127Z,1006.46
2022-11-14T09:59:48.084Z,1006.51
2022-11-14T10:00:48.074Z,1006.49
2022-11-14T10:01:48.141Z,1006.46
2022-11-14T10:02:48.051Z,1006.49
2022-11-14T10:03:48.046Z,1006.50
2022-11-14T10:04:48.050Z,1006.49
2022-11-14T10:05:48.020Z,1006.43
2022-11-14T10:06:48.038Z,1006.40
2022-11-14T10:07:47.993Z,1006.38
2022-11-14T10:08:47.983Z,1006.38
2022-11-14T10:09:48.012Z,1006.36
2022-11-14T10:10:47.957Z,1006.37
2022-11-14T10:11:47.949Z,1006.35
2022-11-14T10:12:47.949Z,1006.36
2022-11-14T10:13:47.934Z,1006.31
2022-11-14T10:14:47.914Z,1006.29
2022-11-14T10:15:47.949Z,1006.23
2022-11-14T10:16:47.897Z,1006.20
2022-11-14T10:17:47.885Z,1006.13
2022-11-14T10:18:47.876Z,1006.10
2022-11-14T10:19:47.867Z,1006.10
2022-11-14T10:20:47.858Z,1006.09
2022-11-14T10:21:47.859Z,1006.08
2022-11-14T10:22:47.900Z,1006.11
2022-11-14T10:23:47.817Z,1006.13
2022-11-14T10:24:47.807Z,1006.07
2022-11-14T10:25:47.792Z,1006.02
2022-11-14T10:26:47.841Z,1006.08
2022-11-14T10:27:52.516Z,1006.04
2022-11-14T10:28:47.800Z,1006.05
2022-11-14T10:29:47.747Z,1006.06
2022-11-14T10:30:47.747Z,1006.08
2022-11-14T10:31:47.731Z,1006.12
2022-11-14T10:32:47.740Z,1006.12
2022-11-14T10:33:47.732Z,1006.13
2022-11-14T10:34:47.723Z,1006.04
2022-11-14T10:35:47.680Z,1006.05
2022-11-14T10:36:47.687Z,1006.06
2022-11-14T10:37:47.659Z,1006.08
2022-11-14T10:38:47.728Z,1006.06
2022-11-14T10:39:47.639Z,1005.99
2022-11-14T10:40:47.636Z,1006.02
2022-11-14T10:41:57.965Z,1006.03
2022-11-14T10:42:47.609Z,1006.06
2022-11-14T10:43:47.597Z,1006.09
2022-11-14T10:44:47.799Z,1006.11
2022-11-14T10:45:47.579Z,1006.12
2022-11-14T10:46:47.567Z,1006.14
2022-11-14T10:47:47.551Z,1006.19
2022-11-14T10:48:47.539Z,1006.15
2022-11-14T10:49:47.532Z,1006.19
2022-11-14T10:50:47.552Z,1006.19
2022-11-14T10:51:47.511Z,1006.17
2022-11-14T10:52:47.498Z,1006.19
2022-11-14T10:53:47.485Z,1006.22
2022-11-14T10:54:47.481Z,1006.28
2022-11-14T10:56:03.761Z,1006.27
2022-11-14T10:56:47.482Z,1006.30
2022-11-14T10:57:47.463Z,1006.31
2022-11-14T10:58:49.376Z,1006.38
2022-11-14T10:59:47.469Z,1006.40
2022-11-14T11:00:47.418Z,1006.35
2022-11-14T11:01:47.425Z,1006.38
2022-11-14T11:02:47.383Z,1006.33
2022-11-14T11:03:47.435Z,1006.34
2022-11-14T11:04:47.357Z,1006.31
2022-11-14T11:05:47.348Z,1006.34
2022-11-14T11:06:47.393Z,1006.32
2022-11-14T11:07:47.354Z,1006.33
2022-11-14T11:08:47.645Z,1006.34
2022-11-14T11:09:47.385Z,1006.29
2022-11-14T11:10:47.314Z,1006.27
2022-11-14T11:11:47.290Z,1006.27
2022-11-14T11:12:47.325Z,1006.30
2022-11-14T11:13:47.282Z,1006.31
2022-11-14T11:14:47.250Z,1006.34
2022-11-14T11:15:47.236Z,1006.29
2022-11-14T11:16:47.223Z,1006.26
2022-11-14T11:17:47.228Z,1006.19
2022-11-14T11:18:50.631Z,1006.12
2022-11-14T11:19:47.213Z,1006.06
2022-11-14T11:20:47.188Z,1006.00
2022-11-14T11:21:47.247Z,1005.98
2022-11-14T11:22:47.158Z,1006.01
2022-11-14T11:23:47.148Z,1006.00
2022-11-14T11:24:47.154Z,1006.09
2022-11-14T11:25:47.158Z,1006.04
2022-11-14T11:26:47.118Z,1006.00
2022-11-14T11:27:47.102Z,1006.00
2022-11-14T11:28:47.100Z,1006.06
2022-11-14T11:29:47.083Z,1006.05
2022-11-14T11:30:50.603Z,1006.02
2022-11-14T11:31:47.103Z,1006.09
2022-11-14T11:32:47.048Z,1006.07
2022-11-14T11:33:47.035Z,1005.95
2022-11-14T11:34:47.022Z,1005.90
2022-11-14T11:35:47.025Z,1005.91
2022-11-14T11:36:47.016Z,1005.77
2022-11-14T11:37:47.012Z,1005.79
2022-11-14T11:38:46.983Z,1005.82
2022-11-14T11:39:46.967Z,1005.76
2022-11-14T11:40:47.022Z,1005.76
2022-11-14T11:43:36.895Z,1005.67
2022-11-14T11:43:46.933Z,1005.64
2022-11-14T11:44:46.922Z,1005.65
2022-11-14T11:45:46.903Z,1005.63
2022-11-14T11:46:46.912Z,1005.64
2022-11-14T11:47:46.879Z,1005.62
2022-11-14T11:48:46.895Z,1005.60
2022-11-14T11:49:52.905Z,1005.59
2022-11-14T11:50:46.872Z,1005.48
2022-11-14T11:51:46.843Z,1005.47
2022-11-14T11:52:46.831Z,1005.44
2022-11-14T11:53:46.833Z,1005.47
2022-11-14T11:54:46.809Z,1005.47
2022-11-14T11:55:46.787Z,1005.54
2022-11-14T11:56:46.777Z,1005.49
2022-11-14T11:57:46.766Z,1005.45
2022-11-14T11:58:46.763Z,1005.51
2022-11-14T11:59:46.768Z,1005.53
2022-11-14T12:00:46.744Z,1005.51
2022-11-14T12:01:46.721Z,1005.52
2022-11-14T12:02:50.216Z,1005.53
2022-11-14T12:03:46.941Z,1005.53
2022-11-14T12:04:46.715Z,1005.49
2022-11-14T12:05:46.677Z,1005.49
2022-11-14T12:06:46.739Z,1005.42
2022-11-14T12:07:46.655Z,1005.43